TimeEDT,TemperatureF,Dew PointF,Humidity,Sea Level PressureIn,VisibilityMPH,Wind Direction,Wind SpeedMPH,Gust SpeedMPH,PrecipitationIn,Events,Conditions,WindDirDegrees,DateUTC
12:05 AM,26.6,19.4,74,29.94,10.0,West,8.1,-,N/A,,Scattered Clouds,260,2013-04-03 04:05:00
12:54 AM,27.0,19.9,75,29.98,10.0,Variable,5.8,19.6,N/A,,Mostly Cloudy,0,2013-04-03 04:54:00
1:54 AM,26.1,19.9,78,29.98,10.0,West,6.9,-,N/A,,Overcast,270,2013-04-03 05:54:00
2:54 AM,25.0,18.0,75,29.97,10.0,West,6.9,-,N/A,,Partly Cloudy,260,2013-04-03 06:54:00
3:54 AM,25.0,17.1,72,29.98,10.0,WSW,9.2,17.3,N/A,,Partly Cloudy,250,2013-04-03 07:54:00
4:54 AM,25.0,15.1,66,29.99,10.0,WSW,10.4,18.4,N/A,,Clear,250,2013-04-03 08:54:00
5:54 AM,24.1,15.1,69,30.01,10.0,SW,5.8,-,N/A,,Clear,230,2013-04-03 09:54:00
6:54 AM,24.1,14.0,65,30.04,10.0,Variable,5.8,-,N/A,,Clear,0,2013-04-03 10:54:00
7:54 AM,26.1,15.1,63,30.05,10.0,West,6.9,-,N/A,,Clear,260,2013-04-03 11:54:00
8:54 AM,28.0,14.0,56,30.05,10.0,West,13.8,24.2,N/A,,Clear,280,2013-04-03 12:54:00
9:54 AM,30.0,12.0,47,30.04,10.0,West,16.1,25.3,N/A,,Partly Cloudy,280,2013-04-03 13:54:00
10:54 AM,33.1,9.0,37,30.04,10.0,WNW,17.3,28.8,N/A,,Partly Cloudy,290,2013-04-03 14:54:00
11:54 AM,35.1,6.1,30,30.04,10.0,WNW,15.0,25.3,N/A,,Clear,300,2013-04-03 15:54:00
12:54 PM,37.0,9.0,31,30.04,10.0,West,15.0,21.9,N/A,,Clear,280,2013-04-03 16:54:00
1:54 PM,39.0,10.0,30,30.03,10.0,WNW,13.8,23.0,N/A,,Clear,290,2013-04-03 17:54:00
2:54 PM,39.0,9.0,29,30.05,10.0,WNW,15.0,31.1,N/A,,Clear,290,2013-04-03 18:54:00
3:54 PM,37.9,8.1,29,30.05,10.0,WNW,12.7,39.1,N/A,,Clear,290,2013-04-03 19:54:00
4:54 PM,37.9,9.0,30,30.07,10.0,WSW,13.8,27.6,N/A,,Clear,250,2013-04-03 20:54:00
5:54 PM,35.1,10.9,37,30.10,10.0,West,10.4,28.8,N/A,,Clear,280,2013-04-03 21:54:00
6:54 PM,32.0,12.0,44,30.14,10.0,West,11.5,21.9,N/A,,Clear,280,2013-04-03 22:54:00
7:54 PM,32.0,12.0,44,30.18,10.0,West,13.8,23.0,N/A,,Overcast,280,2013-04-03 23:54:00
8:54 PM,30.0,12.0,47,30.20,10.0,West,4.6,-,N/A,,Scattered Clouds,280,2013-04-04 00:54:00
9:54 PM,30.0,12.0,47,30.23,10.0,West,11.5,-,N/A,,Clear,260,2013-04-04 01:54:00
10:54 PM,28.9,12.0,49,30.24,10.0,WSW,10.4,17.3,N/A,,Clear,250,2013-04-04 02:54:00
11:54 PM,28.9,14.0,54,30.25,10.0,West,8.1,16.1,N/A,,Clear,280,2013-04-04 03:54:00